sensor_id;sensor_type;location;lat;lon;timestamp;P1;durP1;ratioP1;P2;durP2;ratioP2
3991;SDS011;2010;48.194;16.394;2023-05-07T00:00:37;4.40;;;4.00;;
3991;SDS011;2010;48.194;16.394;2023-05-07T00:03:10;4.60;;;4.03;;
3991;SDS011;2010;48.194;16.394;2023-05-07T00:05:40;5.90;;;5.03;;
3991;SDS011;2010;48.194;16.394;2023-05-07T00:08:12;9.10;;;5.47;;
3991;SDS011;2010;48.194;16.394;2023-05-07T00:10:51;5.87;;;5.20;;
3991;SDS011;2010;48.194;16.394;2023-05-07T00:13:21;5.77;;;4.60;;
3991;SDS011;2010;48.194;16.394;2023-05-07T00:16:00;6.23;;;4.97;;
3991;SDS011;2010;48.194;16.394;2023-05-07T00:18:31;4.50;;;4.13;;
3991;SDS011;2010;48.194;16.394;2023-05-07T00:21:03;5.83;;;4.50;;
3991;SDS011;2010;48.194;16.394;2023-05-07T00:23:31;3.80;;;3.50;;
3991;SDS011;2010;48.194;16.394;2023-05-07T00:26:02;3.63;;;3.30;;
3991;SDS011;2010;48.194;16.394;2023-05-07T00:28:33;3.37;;;3.07;;
3991;SDS011;2010;48.194;16.394;2023-05-07T00:31:07;3.20;;;2.83;;
3991;SDS011;2010;48.194;16.394;2023-05-07T00:33:37;2.50;;;2.33;;
3991;SDS011;2010;48.194;16.394;2023-05-07T00:36:16;3.07;;;2.73;;
3991;SDS011;2010;48.194;16.394;2023-05-07T00:38:45;6.37;;;3.87;;
3991;SDS011;2010;48.194;16.394;2023-05-07T00:41:16;3.43;;;3.13;;
3991;SDS011;2010;48.194;16.394;2023-05-07T00:43:51;3.27;;;2.70;;
3991;SDS011;2010;48.194;16.394;2023-05-07T00:46:35;2.70;;;2.50;;
3991;SDS011;2010;48.194;16.394;2023-05-07T00:49:06;3.10;;;2.90;;
3991;SDS011;2010;48.194;16.394;2023-05-07T00:51:43;3.70;;;3.33;;
3991;SDS011;2010;48.194;16.394;2023-05-07T00:54:14;4.13;;;3.60;;
3991;SDS011;2010;48.194;16.394;2023-05-07T00:56:47;3.33;;;3.03;;
3991;SDS011;2010;48.194;16.394;2023-05-07T00:59:16;5.53;;;3.73;;
3991;SDS011;2010;48.194;16.394;2023-05-07T01:01:49;3.60;;;3.30;;
3991;SDS011;2010;48.194;16.394;2023-05-07T01:04:17;3.50;;;3.20;;
3991;SDS011;2010;48.194;16.394;2023-05-07T01:06:47;4.33;;;3.37;;
3991;SDS011;2010;48.194;16.394;2023-05-07T01:09:19;5.63;;;3.20;;
3991;SDS011;2010;48.194;16.394;2023-05-07T01:11:57;3.30;;;3.00;;
3991;SDS011;2010;48.194;16.394;2023-05-07T01:14:30;2.93;;;2.73;;
3991;SDS011;2010;48.194;16.394;2023-05-07T01:17:01;3.17;;;2.97;;
3991;SDS011;2010;48.194;16.394;2023-05-07T01:19:33;4.00;;;3.70;;
3991;SDS011;2010;48.194;16.394;2023-05-07T01:22:07;3.47;;;3.17;;
3991;SDS011;2010;48.194;16.394;2023-05-07T01:24:49;3.63;;;3.30;;
3991;SDS011;2010;48.194;16.394;2023-05-07T01:27:24;4.77;;;3.07;;
3991;SDS011;2010;48.194;16.394;2023-05-07T01:29:53;3.00;;;2.70;;
3991;SDS011;2010;48.194;16.394;2023-05-07T01:32:32;3.17;;;2.97;;
3991;SDS011;2010;48.194;16.394;2023-05-07T01:35:07;3.53;;;2.90;;
3991;SDS011;2010;48.194;16.394;2023-05-07T01:37:42;2.83;;;2.30;;
3991;SDS011;2010;48.194;16.394;2023-05-07T01:40:20;2.90;;;2.70;;
3991;SDS011;2010;48.194;16.394;2023-05-07T01:42:50;3.07;;;2.40;;
3991;SDS011;2010;48.194;16.394;2023-05-07T01:45:22;3.03;;;2.83;;
3991;SDS011;2010;48.194;16.394;2023-05-07T01:47:59;1.97;;;1.87;;
3991;SDS011;2010;48.194;16.394;2023-05-07T01:50:29;2.47;;;2.37;;
3991;SDS011;2010;48.194;16.394;2023-05-07T01:52:59;2.40;;;2.20;;
3991;SDS011;2010;48.194;16.394;2023-05-07T01:55:30;2.50;;;2.30;;
3991;SDS011;2010;48.194;16.394;2023-05-07T01:58:08;2.40;;;2.30;;
3991;SDS011;2010;48.194;16.394;2023-05-07T02:00:46;1.97;;;1.87;;
3991;SDS011;2010;48.194;16.394;2023-05-07T02:03:23;3.13;;;2.60;;
3991;SDS011;2010;48.194;16.394;2023-05-07T02:06:02;3.40;;;2.03;;
3991;SDS011;2010;48.194;16.394;2023-05-07T02:08:48;3.63;;;2.83;;
3991;SDS011;2010;48.194;16.394;2023-05-07T02:11:36;2.60;;;2.40;;
3991;SDS011;2010;48.194;16.394;2023-05-07T02:14:08;2.83;;;2.07;;
3991;SDS011;2010;48.194;16.394;2023-05-07T02:16:41;1.80;;;1.70;;
3991;SDS011;2010;48.194;16.394;2023-05-07T02:19:14;2.00;;;1.90;;
3991;SDS011;2010;48.194;16.394;2023-05-07T02:21:46;2.10;;;2.00;;
3991;SDS011;2010;48.194;16.394;2023-05-07T02:24:16;3.10;;;2.37;;
3991;SDS011;2010;48.194;16.394;2023-05-07T02:26:48;2.37;;;2.17;;
3991;SDS011;2010;48.194;16.394;2023-05-07T02:29:25;2.37;;;2.20;;
3991;SDS011;2010;48.194;16.394;2023-05-07T02:32:07;3.03;;;2.40;;
3991;SDS011;2010;48.194;16.394;2023-05-07T02:34:41;2.40;;;2.10;;
3991;SDS011;2010;48.194;16.394;2023-05-07T02:37:11;2.80;;;2.60;;
3991;SDS011;2010;48.194;16.394;2023-05-07T02:39:49;2.33;;;2.23;;
3991;SDS011;2010;48.194;16.394;2023-05-07T02:42:22;3.43;;;2.70;;
3991;SDS011;2010;48.194;16.394;2023-05-07T02:44:53;2.77;;;2.57;;
3991;SDS011;2010;48.194;16.394;2023-05-07T02:47:30;2.60;;;2.23;;
3991;SDS011;2010;48.194;16.394;2023-05-07T02:50:05;2.80;;;2.60;;
3991;SDS011;2010;48.194;16.394;2023-05-07T02:52:41;2.70;;;2.57;;
3991;SDS011;2010;48.194;16.394;2023-05-07T02:55:17;2.10;;;2.00;;
3991;SDS011;2010;48.194;16.394;2023-05-07T02:57:51;8.07;;;2.60;;
3991;SDS011;2010;48.194;16.394;2023-05-07T03:00:20;3.67;;;3.00;;
3991;SDS011;2010;48.194;16.394;2023-05-07T03:03:14;3.67;;;3.37;;
3991;SDS011;2010;48.194;16.394;2023-05-07T03:05:45;3.60;;;3.40;;
3991;SDS011;2010;48.194;16.394;2023-05-07T03:08:14;4.53;;;4.13;;
3991;SDS011;2010;48.194;16.394;2023-05-07T03:10:45;7.20;;;4.87;;
3991;SDS011;2010;48.194;16.394;2023-05-07T03:13:20;4.33;;;3.67;;
3991;SDS011;2010;48.194;16.394;2023-05-07T03:15:48;4.43;;;4.03;;
3991;SDS011;2010;48.194;16.394;2023-05-07T03:18:17;4.10;;;3.70;;
3991;SDS011;2010;48.194;16.394;2023-05-07T03:20:48;5.80;;;5.20;;
3991;SDS011;2010;48.194;16.394;2023-05-07T03:23:25;5.50;;;5.10;;
3991;SDS011;2010;48.194;16.394;2023-05-07T03:25:53;5.47;;;4.90;;
3991;SDS011;2010;48.194;16.394;2023-05-07T03:28:36;6.97;;;6.37;;
3991;SDS011;2010;48.194;16.394;2023-05-07T03:31:09;6.17;;;5.53;;
3991;SDS011;2010;48.194;16.394;2023-05-07T03:33:49;5.90;;;5.40;;
3991;SDS011;2010;48.194;16.394;2023-05-07T03:36:23;5.43;;;4.90;;
3991;SDS011;2010;48.194;16.394;2023-05-07T03:38:55;11.90;;;4.60;;
3991;SDS011;2010;48.194;16.394;2023-05-07T03:41:35;6.80;;;6.10;;
3991;SDS011;2010;48.194;16.394;2023-05-07T03:44:19;5.47;;;4.87;;
3991;SDS011;2010;48.194;16.394;2023-05-07T03:46:52;7.17;;;6.50;;
3991;SDS011;2010;48.194;16.394;2023-05-07T03:49:28;6.93;;;6.20;;
3991;SDS011;2010;48.194;16.394;2023-05-07T03:51:59;8.60;;;6.10;;
3991;SDS011;2010;48.194;16.394;2023-05-07T03:54:32;6.10;;;5.50;;
3991;SDS011;2010;48.194;16.394;2023-05-07T03:57:04;7.20;;;6.50;;
3991;SDS011;2010;48.194;16.394;2023-05-07T03:59:38;8.40;;;7.30;;
3991;SDS011;2010;48.194;16.394;2023-05-07T04:02:09;8.93;;;7.63;;
3991;SDS011;2010;48.194;16.394;2023-05-07T04:04:38;9.50;;;8.20;;
3991;SDS011;2010;48.194;16.394;2023-05-07T04:07:07;7.67;;;6.97;;
3991;SDS011;2010;48.194;16.394;2023-05-07T04:09:44;8.60;;;7.80;;
3991;SDS011;2010;48.194;16.394;2023-05-07T04:12:15;8.50;;;7.77;;
3991;SDS011;2010;48.194;16.394;2023-05-07T04:14:50;8.80;;;7.20;;
3991;SDS011;2010;48.194;16.394;2023-05-07T04:17:32;9.10;;;7.67;;
3991;SDS011;2010;48.194;16.394;2023-05-07T04:20:08;8.90;;;7.93;;
3991;SDS011;2010;48.194;16.394;2023-05-07T04:22:49;9.10;;;8.20;;
3991;SDS011;2010;48.194;16.394;2023-05-07T04:25:22;10.37;;;8.43;;
3991;SDS011;2010;48.194;16.394;2023-05-07T04:28:01;8.53;;;7.63;;
3991;SDS011;2010;48.194;16.394;2023-05-07T04:30:34;11.77;;;8.53;;
3991;SDS011;2010;48.194;16.394;2023-05-07T04:33:06;10.53;;;8.77;;
3991;SDS011;2010;48.194;16.394;2023-05-07T04:35:37;11.50;;;10.30;;
3991;SDS011;2010;48.194;16.394;2023-05-07T04:38:08;13.03;;;11.70;;
3991;SDS011;2010;48.194;16.394;2023-05-07T04:40:45;11.30;;;9.67;;
3991;SDS011;2010;48.194;16.394;2023-05-07T04:43:22;12.30;;;11.13;;
3991;SDS011;2010;48.194;16.394;2023-05-07T04:45:54;12.87;;;11.60;;
3991;SDS011;2010;48.194;16.394;2023-05-07T04:48:26;14.70;;;13.10;;
3991;SDS011;2010;48.194;16.394;2023-05-07T04:51:03;18.93;;;14.20;;
3991;SDS011;2010;48.194;16.394;2023-05-07T04:53:34;18.43;;;16.40;;
3991;SDS011;2010;48.194;16.394;2023-05-07T04:56:06;19.53;;;16.63;;
3991;SDS011;2010;48.194;16.394;2023-05-07T04:58:41;16.83;;;15.13;;
3991;SDS011;2010;48.194;16.394;2023-05-07T05:01:20;17.23;;;15.43;;
3991;SDS011;2010;48.194;16.394;2023-05-07T05:03:49;19.87;;;17.20;;
3991;SDS011;2010;48.194;16.394;2023-05-07T05:06:19;20.23;;;18.17;;
3991;SDS011;2010;48.194;16.394;2023-05-07T05:08:52;23.77;;;18.07;;
3991;SDS011;2010;48.194;16.394;2023-05-07T05:11:31;24.17;;;20.00;;
3991;SDS011;2010;48.194;16.394;2023-05-07T05:14:05;21.80;;;19.43;;
3991;SDS011;2010;48.194;16.394;2023-05-07T05:16:40;23.70;;;19.90;;
3991;SDS011;2010;48.194;16.394;2023-05-07T05:19:14;24.23;;;19.43;;
3991;SDS011;2010;48.194;16.394;2023-05-07T05:21:45;24.03;;;20.00;;
3991;SDS011;2010;48.194;16.394;2023-05-07T05:24:25;26.67;;;22.67;;
3991;SDS011;2010;48.194;16.394;2023-05-07T05:27:00;27.57;;;22.30;;
3991;SDS011;2010;48.194;16.394;2023-05-07T05:29:31;28.10;;;23.33;;
3991;SDS011;2010;48.194;16.394;2023-05-07T05:32:04;27.23;;;21.80;;
3991;SDS011;2010;48.194;16.394;2023-05-07T05:34:32;25.97;;;22.23;;
3991;SDS011;2010;48.194;16.394;2023-05-07T05:37:03;28.03;;;22.00;;
3991;SDS011;2010;48.194;16.394;2023-05-07T05:39:34;28.73;;;22.20;;
3991;SDS011;2010;48.194;16.394;2023-05-07T05:42:02;23.07;;;20.57;;
3991;SDS011;2010;48.194;16.394;2023-05-07T05:44:35;23.57;;;21.07;;
3991;SDS011;2010;48.194;16.394;2023-05-07T05:47:06;23.40;;;21.00;;
3991;SDS011;2010;48.194;16.394;2023-05-07T05:49:36;22.43;;;18.33;;
3991;SDS011;2010;48.194;16.394;2023-05-07T05:52:10;24.27;;;21.17;;
3991;SDS011;2010;48.194;16.394;2023-05-07T05:54:53;24.00;;;19.90;;
3991;SDS011;2010;48.194;16.394;2023-05-07T05:57:25;22.27;;;19.97;;
3991;SDS011;2010;48.194;16.394;2023-05-07T05:59:56;27.93;;;21.20;;
3991;SDS011;2010;48.194;16.394;2023-05-07T06:02:25;23.60;;;19.07;;
3991;SDS011;2010;48.194;16.394;2023-05-07T06:04:53;24.00;;;21.40;;
3991;SDS011;2010;48.194;16.394;2023-05-07T06:07:22;21.37;;;19.07;;
3991;SDS011;2010;48.194;16.394;2023-05-07T06:09:53;21.33;;;19.13;;
3991;SDS011;2010;48.194;16.394;2023-05-07T06:12:23;24.10;;;20.07;;
3991;SDS011;2010;48.194;16.394;2023-05-07T06:14:55;25.30;;;20.87;;
3991;SDS011;2010;48.194;16.394;2023-05-07T06:17:39;25.93;;;23.17;;
3991;SDS011;2010;48.194;16.394;2023-05-07T06:20:09;22.80;;;20.30;;
3991;SDS011;2010;48.194;16.394;2023-05-07T06:22:40;24.80;;;21.47;;
3991;SDS011;2010;48.194;16.394;2023-05-07T06:25:10;26.57;;;21.20;;
3991;SDS011;2010;48.194;16.394;2023-05-07T06:27:43;24.10;;;20.50;;
3991;SDS011;2010;48.194;16.394;2023-05-07T06:30:14;23.33;;;20.23;;
3991;SDS011;2010;48.194;16.394;2023-05-07T06:32:46;24.23;;;21.03;;
3991;SDS011;2010;48.194;16.394;2023-05-07T06:35:20;24.97;;;19.90;;
3991;SDS011;2010;48.194;16.394;2023-05-07T06:37:48;24.63;;;19.57;;
3991;SDS011;2010;48.194;16.394;2023-05-07T06:40:21;27.07;;;22.07;;
3991;SDS011;2010;48.194;16.394;2023-05-07T06:42:50;25.37;;;22.57;;
3991;SDS011;2010;48.194;16.394;2023-05-07T06:45:33;22.90;;;20.30;;
3991;SDS011;2010;48.194;16.394;2023-05-07T06:48:05;25.40;;;21.50;;
3991;SDS011;2010;48.194;16.394;2023-05-07T06:50:58;24.37;;;21.00;;
3991;SDS011;2010;48.194;16.394;2023-05-07T06:53:31;25.53;;;21.20;;
3991;SDS011;2010;48.194;16.394;2023-05-07T06:56:05;23.47;;;19.00;;
3991;SDS011;2010;48.194;16.394;2023-05-07T06:58:35;22.07;;;19.37;;
3991;SDS011;2010;48.194;16.394;2023-05-07T07:01:09;23.07;;;20.57;;
3991;SDS011;2010;48.194;16.394;2023-05-07T07:03:46;27.87;;;20.20;;
3991;SDS011;2010;48.194;16.394;2023-05-07T07:06:22;24.10;;;20.50;;
3991;SDS011;2010;48.194;16.394;2023-05-07T07:08:54;22.90;;;20.43;;
3991;SDS011;2010;48.194;16.394;2023-05-07T07:11:26;24.40;;;21.20;;
3991;SDS011;2010;48.194;16.394;2023-05-07T07:13:55;23.87;;;21.27;;
3991;SDS011;2010;48.194;16.394;2023-05-07T07:16:32;24.87;;;20.17;;
3991;SDS011;2010;48.194;16.394;2023-05-07T07:19:02;24.10;;;19.13;;
3991;SDS011;2010;48.194;16.394;2023-05-07T07:21:48;25.83;;;19.90;;
3991;SDS011;2010;48.194;16.394;2023-05-07T07:24:21;23.73;;;21.17;;
3991;SDS011;2010;48.194;16.394;2023-05-07T07:26:57;20.13;;;18.03;;
3991;SDS011;2010;48.194;16.394;2023-05-07T07:29:27;23.20;;;20.47;;
3991;SDS011;2010;48.194;16.394;2023-05-07T07:31:58;23.87;;;21.10;;
3991;SDS011;2010;48.194;16.394;2023-05-07T07:34:32;23.33;;;19.10;;
3991;SDS011;2010;48.194;16.394;2023-05-07T07:37:02;24.93;;;20.07;;
3991;SDS011;2010;48.194;16.394;2023-05-07T07:39:37;24.40;;;19.73;;
3991;SDS011;2010;48.194;16.394;2023-05-07T07:42:14;24.53;;;20.23;;
3991;SDS011;2010;48.194;16.394;2023-05-07T07:44:43;22.40;;;19.57;;
3991;SDS011;2010;48.194;16.394;2023-05-07T07:47:16;20.57;;;18.30;;
3991;SDS011;2010;48.194;16.394;2023-05-07T07:50:01;23.60;;;20.53;;
3991;SDS011;2010;48.194;16.394;2023-05-07T07:52:33;23.27;;;18.40;;
3991;SDS011;2010;48.194;16.394;2023-05-07T07:55:07;23.60;;;19.83;;
3991;SDS011;2010;48.194;16.394;2023-05-07T07:57:53;24.10;;;21.47;;
3991;SDS011;2010;48.194;16.394;2023-05-07T08:00:27;22.83;;;18.27;;
3991;SDS011;2010;48.194;16.394;2023-05-07T08:02:58;28.83;;;18.90;;
3991;SDS011;2010;48.194;16.394;2023-05-07T08:05:47;21.70;;;19.60;;
3991;SDS011;2010;48.194;16.394;2023-05-07T08:08:18;20.73;;;18.37;;
3991;SDS011;2010;48.194;16.394;2023-05-07T08:10:51;23.10;;;19.77;;
3991;SDS011;2010;48.194;16.394;2023-05-07T08:13:27;21.83;;;17.87;;
3991;SDS011;2010;48.194;16.394;2023-05-07T08:16:00;22.87;;;19.47;;
3991;SDS011;2010;48.194;16.394;2023-05-07T08:18:31;19.97;;;17.47;;
3991;SDS011;2010;48.194;16.394;2023-05-07T08:21:05;28.37;;;23.33;;
3991;SDS011;2010;48.194;16.394;2023-05-07T08:23:36;23.30;;;20.03;;
3991;SDS011;2010;48.194;16.394;2023-05-07T08:26:08;22.07;;;18.27;;
3991;SDS011;2010;48.194;16.394;2023-05-07T08:28:36;21.40;;;18.70;;
3991;SDS011;2010;48.194;16.394;2023-05-07T08:31:08;20.00;;;17.20;;
3991;SDS011;2010;48.194;16.394;2023-05-07T08:33:43;18.80;;;16.80;;
3991;SDS011;2010;48.194;16.394;2023-05-07T08:36:25;19.93;;;16.00;;
3991;SDS011;2010;48.194;16.394;2023-05-07T08:38:57;21.60;;;15.70;;
3991;SDS011;2010;48.194;16.394;2023-05-07T08:41:28;15.90;;;13.50;;
3991;SDS011;2010;48.194;16.394;2023-05-07T08:43:57;15.57;;;13.97;;
3991;SDS011;2010;48.194;16.394;2023-05-07T08:46:29;22.67;;;15.47;;
3991;SDS011;2010;48.194;16.394;2023-05-07T08:49:03;17.20;;;15.40;;
3991;SDS011;2010;48.194;16.394;2023-05-07T08:51:34;20.70;;;16.17;;
3991;SDS011;2010;48.194;16.394;2023-05-07T08:54:04;20.10;;;17.20;;
3991;SDS011;2010;48.194;16.394;2023-05-07T08:56:33;21.40;;;17.60;;
3991;SDS011;2010;48.194;16.394;2023-05-07T08:59:05;18.67;;;16.00;;
3991;SDS011;2010;48.194;16.394;2023-05-07T09:01:35;18.57;;;15.53;;
3991;SDS011;2010;48.194;16.394;2023-05-07T09:04:04;16.90;;;15.10;;
3991;SDS011;2010;48.194;16.394;2023-05-07T09:06:36;18.70;;;16.80;;
3991;SDS011;2010;48.194;16.394;2023-05-07T09:09:13;18.43;;;15.00;;
3991;SDS011;2010;48.194;16.394;2023-05-07T09:11:44;16.03;;;14.20;;
3991;SDS011;2010;48.194;16.394;2023-05-07T09:14:21;16.33;;;13.73;;
3991;SDS011;2010;48.194;16.394;2023-05-07T09:17:01;17.20;;;14.93;;
3991;SDS011;2010;48.194;16.394;2023-05-07T09:19:31;14.57;;;13.17;;
3991;SDS011;2010;48.194;16.394;2023-05-07T09:22:07;16.57;;;14.10;;
3991;SDS011;2010;48.194;16.394;2023-05-07T09:25:06;18.23;;;12.70;;
3991;SDS011;2010;48.194;16.394;2023-05-07T09:27:43;15.20;;;13.37;;
3991;SDS011;2010;48.194;16.394;2023-05-07T09:30:15;15.37;;;13.47;;
3991;SDS011;2010;48.194;16.394;2023-05-07T09:32:47;14.63;;;11.63;;
3991;SDS011;2010;48.194;16.394;2023-05-07T09:35:20;14.90;;;13.40;;
3991;SDS011;2010;48.194;16.394;2023-05-07T09:38:00;12.53;;;11.33;;
3991;SDS011;2010;48.194;16.394;2023-05-07T09:40:36;13.33;;;12.00;;
3991;SDS011;2010;48.194;16.394;2023-05-07T09:43:10;13.40;;;11.80;;
3991;SDS011;2010;48.194;16.394;2023-05-07T09:45:53;11.40;;;10.30;;
3991;SDS011;2010;48.194;16.394;2023-05-07T09:48:28;14.07;;;12.57;;
3991;SDS011;2010;48.194;16.394;2023-05-07T09:53:39;12.57;;;11.27;;
3991;SDS011;2010;48.194;16.394;2023-05-07T09:56:19;15.73;;;12.20;;
3991;SDS011;2010;48.194;16.394;2023-05-07T09:58:58;13.20;;;11.90;;
3991;SDS011;2010;48.194;16.394;2023-05-07T10:01:36;15.07;;;12.50;;
3991;SDS011;2010;48.194;16.394;2023-05-07T10:04:10;14.03;;;12.53;;
3991;SDS011;2010;48.194;16.394;2023-05-07T10:06:49;14.37;;;12.07;;
3991;SDS011;2010;48.194;16.394;2023-05-07T10:09:24;13.57;;;12.17;;
3991;SDS011;2010;48.194;16.394;2023-05-07T10:11:54;13.80;;;10.77;;
3991;SDS011;2010;48.194;16.394;2023-05-07T10:14:25;14.73;;;13.13;;
3991;SDS011;2010;48.194;16.394;2023-05-07T10:17:05;12.10;;;10.90;;
3991;SDS011;2010;48.194;16.394;2023-05-07T10:19:39;12.73;;;11.40;;
3991;SDS011;2010;48.194;16.394;2023-05-07T10:22:09;12.00;;;10.50;;
3991;SDS011;2010;48.194;16.394;2023-05-07T10:24:44;12.13;;;11.00;;
3991;SDS011;2010;48.194;16.394;2023-05-07T10:27:18;12.40;;;10.90;;
3991;SDS011;2010;48.194;16.394;2023-05-07T10:29:52;16.23;;;12.53;;
3991;SDS011;2010;48.194;16.394;2023-05-07T10:32:37;13.60;;;12.20;;
3991;SDS011;2010;48.194;16.394;2023-05-07T10:35:26;11.53;;;10.33;;
3991;SDS011;2010;48.194;16.394;2023-05-07T10:38:04;11.60;;;10.40;;
3991;SDS011;2010;48.194;16.394;2023-05-07T10:40:37;12.47;;;11.23;;
3991;SDS011;2010;48.194;16.394;2023-05-07T10:43:08;16.43;;;11.87;;
3991;SDS011;2010;48.194;16.394;2023-05-07T10:49:09;15.53;;;12.50;;
3991;SDS011;2010;48.194;16.394;2023-05-07T11:04:32;15.83;;;12.07;;
3991;SDS011;2010;48.194;16.394;2023-05-07T11:07:26;15.10;;;11.90;;
3991;SDS011;2010;48.194;16.394;2023-05-07T11:10:09;14.20;;;12.23;;
3991;SDS011;2010;48.194;16.394;2023-05-07T11:12:50;14.90;;;13.30;;
3991;SDS011;2010;48.194;16.394;2023-05-07T11:15:44;11.17;;;10.00;;
3991;SDS011;2010;48.194;16.394;2023-05-07T11:18:46;13.17;;;11.83;;
3991;SDS011;2010;48.194;16.394;2023-05-07T11:21:34;12.43;;;11.10;;
3991;SDS011;2010;48.194;16.394;2023-05-07T11:24:24;13.10;;;11.70;;
3991;SDS011;2010;48.194;16.394;2023-05-07T11:27:12;13.00;;;10.70;;
3991;SDS011;2010;48.194;16.394;2023-05-07T11:29:41;13.33;;;11.20;;
3991;SDS011;2010;48.194;16.394;2023-05-07T11:32:26;14.37;;;10.30;;
3991;SDS011;2010;48.194;16.394;2023-05-07T11:35:00;11.13;;;9.00;;
3991;SDS011;2010;48.194;16.394;2023-05-07T11:37:31;10.47;;;9.57;;
3991;SDS011;2010;48.194;16.394;2023-05-07T11:40:04;10.43;;;9.43;;
3991;SDS011;2010;48.194;16.394;2023-05-07T11:42:35;11.43;;;10.23;;
3991;SDS011;2010;48.194;16.394;2023-05-07T11:45:26;10.60;;;9.60;;
3991;SDS011;2010;48.194;16.394;2023-05-07T11:48:00;11.40;;;9.97;;
3991;SDS011;2010;48.194;16.394;2023-05-07T11:50:30;10.37;;;9.13;;
3991;SDS011;2010;48.194;16.394;2023-05-07T11:52:59;12.83;;;10.90;;
3991;SDS011;2010;48.194;16.394;2023-05-07T11:55:33;9.87;;;8.87;;
3991;SDS011;2010;48.194;16.394;2023-05-07T11:58:02;12.00;;;8.83;;
3991;SDS011;2010;48.194;16.394;2023-05-07T12:00:36;10.20;;;9.07;;
3991;SDS011;2010;48.194;16.394;2023-05-07T12:03:12;9.70;;;8.70;;
3991;SDS011;2010;48.194;16.394;2023-05-07T12:05:40;11.17;;;10.07;;
3991;SDS011;2010;48.194;16.394;2023-05-07T12:08:13;8.90;;;7.97;;
3991;SDS011;2010;48.194;16.394;2023-05-07T12:10:53;9.30;;;8.40;;
3991;SDS011;2010;48.194;16.394;2023-05-07T12:13:24;9.70;;;8.80;;
3991;SDS011;2010;48.194;16.394;2023-05-07T12:15:56;11.37;;;8.93;;
3991;SDS011;2010;48.194;16.394;2023-05-07T12:18:30;8.47;;;7.67;;
3991;SDS011;2010;48.194;16.394;2023-05-07T12:21:00;8.83;;;7.03;;
3991;SDS011;2010;48.194;16.394;2023-05-07T12:23:32;11.03;;;9.83;;
3991;SDS011;2010;48.194;16.394;2023-05-07T12:26:03;8.17;;;7.20;;
3991;SDS011;2010;48.194;16.394;2023-05-07T12:28:38;9.73;;;8.73;;
3991;SDS011;2010;48.194;16.394;2023-05-07T12:31:14;8.97;;;8.07;;
3991;SDS011;2010;48.194;16.394;2023-05-07T12:33:57;8.90;;;8.00;;
3991;SDS011;2010;48.194;16.394;2023-05-07T12:36:26;9.80;;;8.60;;
3991;SDS011;2010;48.194;16.394;2023-05-07T12:39:10;8.87;;;8.00;;
3991;SDS011;2010;48.194;16.394;2023-05-07T12:41:54;8.60;;;7.80;;
3991;SDS011;2010;48.194;16.394;2023-05-07T12:44:24;7.73;;;6.93;;
3991;SDS011;2010;48.194;16.394;2023-05-07T12:46:54;7.73;;;7.03;;
3991;SDS011;2010;48.194;16.394;2023-05-07T12:49:31;9.20;;;8.40;;
3991;SDS011;2010;48.194;16.394;2023-05-07T12:52:00;9.33;;;8.23;;
3991;SDS011;2010;48.194;16.394;2023-05-07T12:54:30;8.67;;;7.87;;
3991;SDS011;2010;48.194;16.394;2023-05-07T12:57:05;8.40;;;7.33;;
3991;SDS011;2010;48.194;16.394;2023-05-07T12:59:36;6.60;;;5.80;;
3991;SDS011;2010;48.194;16.394;2023-05-07T13:02:13;9.30;;;7.00;;
3991;SDS011;2010;48.194;16.394;2023-05-07T13:04:55;7.10;;;6.40;;
3991;SDS011;2010;48.194;16.394;2023-05-07T13:07:24;6.57;;;6.00;;
3991;SDS011;2010;48.194;16.394;2023-05-07T13:10:04;6.37;;;5.77;;
3991;SDS011;2010;48.194;16.394;2023-05-07T13:12:41;6.67;;;5.97;;
3991;SDS011;2010;48.194;16.394;2023-05-07T13:15:14;6.57;;;5.97;;
3991;SDS011;2010;48.194;16.394;2023-05-07T13:17:43;5.83;;;5.43;;
3991;SDS011;2010;48.194;16.394;2023-05-07T13:20:13;7.03;;;6.40;;
3991;SDS011;2010;48.194;16.394;2023-05-07T13:22:44;6.73;;;6.13;;
3991;SDS011;2010;48.194;16.394;2023-05-07T13:25:13;10.23;;;6.60;;
3991;SDS011;2010;48.194;16.394;2023-05-07T13:27:43;6.00;;;5.50;;
3991;SDS011;2010;48.194;16.394;2023-05-07T13:30:16;6.90;;;6.30;;
3991;SDS011;2010;48.194;16.394;2023-05-07T13:32:45;9.10;;;6.20;;
3991;SDS011;2010;48.194;16.394;2023-05-07T13:35:20;6.23;;;5.63;;
3991;SDS011;2010;48.194;16.394;2023-05-07T13:37:49;7.50;;;5.93;;
3991;SDS011;2010;48.194;16.394;2023-05-07T13:40:24;7.27;;;6.57;;
3991;SDS011;2010;48.194;16.394;2023-05-07T13:42:53;6.30;;;5.87;;
3991;SDS011;2010;48.194;16.394;2023-05-07T13:45:23;6.63;;;6.00;;
3991;SDS011;2010;48.194;16.394;2023-05-07T13:47:53;6.73;;;5.50;;
3991;SDS011;2010;48.194;16.394;2023-05-07T13:50:28;6.73;;;6.00;;
3991;SDS011;2010;48.194;16.394;2023-05-07T13:52:58;7.00;;;6.30;;
3991;SDS011;2010;48.194;16.394;2023-05-07T13:55:28;7.10;;;6.50;;
3991;SDS011;2010;48.194;16.394;2023-05-07T13:57:57;7.23;;;6.53;;
3991;SDS011;2010;48.194;16.394;2023-05-07T14:00:34;5.40;;;4.90;;
3991;SDS011;2010;48.194;16.394;2023-05-07T14:03:04;6.97;;;6.37;;
3991;SDS011;2010;48.194;16.394;2023-05-07T14:05:39;6.93;;;6.30;;
3991;SDS011;2010;48.194;16.394;2023-05-07T14:08:16;6.80;;;6.13;;
3991;SDS011;2010;48.194;16.394;2023-05-07T14:10:46;6.27;;;5.67;;
3991;SDS011;2010;48.194;16.394;2023-05-07T14:13:23;5.70;;;5.30;;
3991;SDS011;2010;48.194;16.394;2023-05-07T14:15:52;6.40;;;5.90;;
3991;SDS011;2010;48.194;16.394;2023-05-07T14:18:21;5.20;;;4.80;;
3991;SDS011;2010;48.194;16.394;2023-05-07T14:20:53;5.97;;;5.47;;
3991;SDS011;2010;48.194;16.394;2023-05-07T14:23:24;5.50;;;5.00;;
3991;SDS011;2010;48.194;16.394;2023-05-07T14:25:54;5.17;;;4.77;;
3991;SDS011;2010;48.194;16.394;2023-05-07T14:28:32;8.97;;;5.47;;
3991;SDS011;2010;48.194;16.394;2023-05-07T14:31:03;5.43;;;5.03;;
3991;SDS011;2010;48.194;16.394;2023-05-07T14:33:34;5.87;;;5.17;;
3991;SDS011;2010;48.194;16.394;2023-05-07T14:36:08;9.43;;;5.03;;
3991;SDS011;2010;48.194;16.394;2023-05-07T14:38:39;5.63;;;4.87;;
3991;SDS011;2010;48.194;16.394;2023-05-07T14:41:14;4.77;;;4.37;;
3991;SDS011;2010;48.194;16.394;2023-05-07T14:43:50;4.00;;;3.70;;
3991;SDS011;2010;48.194;16.394;2023-05-07T14:46:22;4.50;;;4.10;;
3991;SDS011;2010;48.194;16.394;2023-05-07T14:48:52;5.27;;;4.10;;
3991;SDS011;2010;48.194;16.394;2023-05-07T14:51:26;4.40;;;4.03;;
3991;SDS011;2010;48.194;16.394;2023-05-07T14:54:01;4.83;;;4.00;;
3991;SDS011;2010;48.194;16.394;2023-05-07T14:56:37;4.57;;;4.20;;
3991;SDS011;2010;48.194;16.394;2023-05-07T14:59:06;4.23;;;3.90;;
3991;SDS011;2010;48.194;16.394;2023-05-07T15:01:38;4.63;;;4.17;;
3991;SDS011;2010;48.194;16.394;2023-05-07T15:04:12;4.27;;;3.97;;
3991;SDS011;2010;48.194;16.394;2023-05-07T15:06:46;3.63;;;3.30;;
3991;SDS011;2010;48.194;16.394;2023-05-07T15:09:15;4.20;;;3.90;;
3991;SDS011;2010;48.194;16.394;2023-05-07T15:11:44;4.43;;;4.13;;
3991;SDS011;2010;48.194;16.394;2023-05-07T15:14:15;3.80;;;3.50;;
3991;SDS011;2010;48.194;16.394;2023-05-07T15:16:51;3.90;;;3.60;;
3991;SDS011;2010;48.194;16.394;2023-05-07T15:19:22;4.60;;;4.00;;
3991;SDS011;2010;48.194;16.394;2023-05-07T15:22:03;4.03;;;3.70;;
3991;SDS011;2010;48.194;16.394;2023-05-07T15:24:35;4.13;;;3.20;;
3991;SDS011;2010;48.194;16.394;2023-05-07T15:27:06;3.43;;;3.23;;
3991;SDS011;2010;48.194;16.394;2023-05-07T15:29:37;3.60;;;3.40;;
3991;SDS011;2010;48.194;16.394;2023-05-07T15:32:07;3.73;;;3.40;;
3991;SDS011;2010;48.194;16.394;2023-05-07T15:34:44;8.73;;;3.60;;
3991;SDS011;2010;48.194;16.394;2023-05-07T15:37:24;3.70;;;3.40;;
3991;SDS011;2010;48.194;16.394;2023-05-07T15:40:02;3.10;;;2.90;;
3991;SDS011;2010;48.194;16.394;2023-05-07T15:42:40;3.87;;;3.47;;
3991;SDS011;2010;48.194;16.394;2023-05-07T15:45:12;3.20;;;3.00;;
3991;SDS011;2010;48.194;16.394;2023-05-07T15:47:45;3.57;;;3.27;;